Sierra Vista Municipal Libby Army Air Field
KFHU : now visible

Airfield :











YOU CAN JOIN US ON...

 
LOGIN :

Register | Disclaimer

   EN    FR    IT 

 









Legend :    VFR   Marginal VFR   IFR   Intensive IFR   Very Intensive IFR
Visi :
Ceiling :
>= 8 km
>= 3000ft
5 to 8 km
1000 to 3000 ft
1500m to 5 km
500 to 1000 ft
800 to 1500m
200 to 500 ft
< 800m
< 200 ft
Symbols :   Thunderstorms  Fog  Heavy snow  Heavy precipitations  Wind > 20 kt






- Airport Elevation : 4719 ft
- IATA code : FHU


KFHU - Sierra Vista Municipal Libby Army Air Field

CURRENT METAR :
  • 081907Z AUTO 17018G24KT 10SM SCT080 22/01 A3009 RMK AO2 PRESFR SLP136

EXPIRED METARs :
  • 081858Z AUTO 19016G30KT 10SM BKN080 21/01 A3011 RMK AO2 PK WND 19030/50 SLP139 T02130011
  • 081758Z 16016G22KT 10SM SCT075 19/00 A3012 RMK AO2A PK WND 21029/53 SLP143 T01941003 10203 20101 50001
  • 081704Z AUTO 18013G19KT 10SM SCT080 20/01 A3013 RMK AO2 WSHFT 1651 SLP146
  • 081658Z AUTO 14015G19KT 10SM SCT080 19/01 A3013 RMK AO2 SLP149 T01940007

TAF TAF KFHU
Valid from the 08 at 18:00 until the 10 at 00:00 UTC


081804Z 0818/0924 19015G30KT 9999 SKC 520009 QNH3009INS
BECMG 0818/0819 19025G35KT 9999 SKC 530009 QNH3000INS
BECMG 0902/0903 20009KT 9999 SKC QNH3004INS
BECMG 0914/0915 20012KT 9999 SKC 510009 QNH3004INS
BECMG 0921/0922 20010G20KT 9999 SKC 520009 QNH2999INS TX23/0821Z TN03/0913Z



MET'MAP, your aeronautical weather chart ! - Copyright ORBIFLY December 2007 - Disclaimer

ORBIFLY MET'MAP TEAM :

Programming & Development : Alexandra Zaïnal
Concept & original design : Baudouin d'Aumeries
Assistance for programming : Marc-Olivier Méhu
Technical & hardware support : Manuel Goepfert

Contact : metmap@orbifly.com




SOURCES & CREDITS :

   NOAA       Earth
Advisory